sensor_id;sensor_type;location;lat;lon;timestamp;P1;durP1;ratioP1;P2;durP2;ratioP2
19107;SDS011;9686;48.832;9.126;2022-07-29T00:00:56;4.57;;;4.17;;
19107;SDS011;9686;48.832;9.126;2022-07-29T00:03:22;5.67;;;3.70;;
19107;SDS011;9686;48.832;9.126;2022-07-29T00:05:48;5.40;;;3.87;;
19107;SDS011;9686;48.832;9.126;2022-07-29T00:08:13;4.20;;;3.80;;
19107;SDS011;9686;48.832;9.126;2022-07-29T00:10:40;4.47;;;3.97;;
19107;SDS011;9686;48.832;9.126;2022-07-29T00:13:06;4.73;;;3.80;;
19107;SDS011;9686;48.832;9.126;2022-07-29T00:15:32;5.17;;;3.63;;
19107;SDS011;9686;48.832;9.126;2022-07-29T00:17:58;4.60;;;3.80;;
19107;SDS011;9686;48.832;9.126;2022-07-29T00:20:23;5.10;;;4.37;;
19107;SDS011;9686;48.832;9.126;2022-07-29T00:22:48;5.00;;;3.63;;
19107;SDS011;9686;48.832;9.126;2022-07-29T00:25:14;4.23;;;3.67;;
19107;SDS011;9686;48.832;9.126;2022-07-29T00:27:39;5.00;;;3.90;;
19107;SDS011;9686;48.832;9.126;2022-07-29T00:30:05;5.10;;;3.90;;
19107;SDS011;9686;48.832;9.126;2022-07-29T00:32:31;4.63;;;3.90;;
19107;SDS011;9686;48.832;9.126;2022-07-29T00:34:56;4.27;;;3.87;;
19107;SDS011;9686;48.832;9.126;2022-07-29T00:37:40;5.40;;;4.23;;
19107;SDS011;9686;48.832;9.126;2022-07-29T00:40:06;4.80;;;4.33;;
19107;SDS011;9686;48.832;9.126;2022-07-29T00:42:41;5.47;;;4.20;;
19107;SDS011;9686;48.832;9.126;2022-07-29T00:45:11;4.13;;;3.73;;
19107;SDS011;9686;48.832;9.126;2022-07-29T00:47:37;4.73;;;3.80;;
19107;SDS011;9686;48.832;9.126;2022-07-29T00:50:03;4.13;;;3.73;;
19107;SDS011;9686;48.832;9.126;2022-07-29T00:52:30;4.27;;;3.87;;
19107;SDS011;9686;48.832;9.126;2022-07-29T00:54:56;3.93;;;3.60;;
19107;SDS011;9686;48.832;9.126;2022-07-29T00:57:22;4.07;;;3.67;;
19107;SDS011;9686;48.832;9.126;2022-07-29T00:59:47;4.13;;;3.70;;
19107;SDS011;9686;48.832;9.126;2022-07-29T01:02:13;6.10;;;4.03;;
19107;SDS011;9686;48.832;9.126;2022-07-29T01:04:38;4.83;;;4.13;;
19107;SDS011;9686;48.832;9.126;2022-07-29T01:07:04;4.47;;;4.03;;
19107;SDS011;9686;48.832;9.126;2022-07-29T01:09:31;4.30;;;4.00;;
19107;SDS011;9686;48.832;9.126;2022-07-29T01:11:57;4.43;;;4.03;;
19107;SDS011;9686;48.832;9.126;2022-07-29T01:14:24;4.73;;;4.00;;
19107;SDS011;9686;48.832;9.126;2022-07-29T01:30:24;5.13;;;4.50;;
19107;SDS011;9686;48.832;9.126;2022-07-29T01:32:51;5.30;;;4.30;;
19107;SDS011;9686;48.832;9.126;2022-07-29T01:35:42;5.17;;;4.13;;
19107;SDS011;9686;48.832;9.126;2022-07-29T01:38:12;4.50;;;4.10;;
19107;SDS011;9686;48.832;9.126;2022-07-29T01:40:46;5.70;;;4.27;;
19107;SDS011;9686;48.832;9.126;2022-07-29T01:43:16;4.20;;;3.80;;
19107;SDS011;9686;48.832;9.126;2022-07-29T01:45:46;4.07;;;3.70;;
19107;SDS011;9686;48.832;9.126;2022-07-29T01:48:19;4.80;;;3.63;;
19107;SDS011;9686;48.832;9.126;2022-07-29T01:50:49;4.10;;;3.73;;
19107;SDS011;9686;48.832;9.126;2022-07-29T01:53:25;4.23;;;3.87;;
19107;SDS011;9686;48.832;9.126;2022-07-29T01:55:56;3.97;;;3.57;;
19107;SDS011;9686;48.832;9.126;2022-07-29T01:58:24;5.03;;;3.67;;
19107;SDS011;9686;48.832;9.126;2022-07-29T02:00:52;4.20;;;3.60;;
19107;SDS011;9686;48.832;9.126;2022-07-29T02:03:19;5.70;;;3.53;;
19107;SDS011;9686;48.832;9.126;2022-07-29T02:05:46;3.83;;;3.53;;
19107;SDS011;9686;48.832;9.126;2022-07-29T02:08:13;3.90;;;3.50;;
19107;SDS011;9686;48.832;9.126;2022-07-29T02:10:41;3.53;;;3.23;;
19107;SDS011;9686;48.832;9.126;2022-07-29T02:13:08;6.50;;;3.70;;
19107;SDS011;9686;48.832;9.126;2022-07-29T02:15:36;3.20;;;2.97;;
19107;SDS011;9686;48.832;9.126;2022-07-29T02:18:06;4.30;;;3.20;;
19107;SDS011;9686;48.832;9.126;2022-07-29T02:20:34;4.00;;;3.13;;
19107;SDS011;9686;48.832;9.126;2022-07-29T02:23:01;3.77;;;3.47;;
19107;SDS011;9686;48.832;9.126;2022-07-29T02:25:27;3.47;;;3.17;;
19107;SDS011;9686;48.832;9.126;2022-07-29T02:27:54;3.57;;;3.27;;
19107;SDS011;9686;48.832;9.126;2022-07-29T02:30:21;3.47;;;3.17;;
19107;SDS011;9686;48.832;9.126;2022-07-29T02:32:49;3.17;;;2.70;;
19107;SDS011;9686;48.832;9.126;2022-07-29T02:35:16;2.93;;;2.63;;
19107;SDS011;9686;48.832;9.126;2022-07-29T02:37:43;3.50;;;3.10;;
19107;SDS011;9686;48.832;9.126;2022-07-29T02:40:11;3.73;;;2.97;;
19107;SDS011;9686;48.832;9.126;2022-07-29T02:42:39;2.80;;;2.60;;
19107;SDS011;9686;48.832;9.126;2022-07-29T02:45:07;3.67;;;3.10;;
19107;SDS011;9686;48.832;9.126;2022-07-29T02:47:43;3.67;;;2.87;;
19107;SDS011;9686;48.832;9.126;2022-07-29T02:50:13;3.10;;;2.73;;
19107;SDS011;9686;48.832;9.126;2022-07-29T02:52:57;2.90;;;2.70;;
19107;SDS011;9686;48.832;9.126;2022-07-29T02:55:26;3.40;;;2.93;;
19107;SDS011;9686;48.832;9.126;2022-07-29T03:00:31;3.43;;;2.70;;
19107;SDS011;9686;48.832;9.126;2022-07-29T03:03:01;3.00;;;2.80;;
19107;SDS011;9686;48.832;9.126;2022-07-29T03:05:29;3.43;;;3.00;;
19107;SDS011;9686;48.832;9.126;2022-07-29T03:07:57;3.90;;;2.80;;
19107;SDS011;9686;48.832;9.126;2022-07-29T03:10:26;3.53;;;3.23;;
19107;SDS011;9686;48.832;9.126;2022-07-29T03:12:52;3.00;;;2.80;;
19107;SDS011;9686;48.832;9.126;2022-07-29T03:15:18;2.93;;;2.73;;
19107;SDS011;9686;48.832;9.126;2022-07-29T03:17:45;4.90;;;3.40;;
19107;SDS011;9686;48.832;9.126;2022-07-29T03:20:11;4.53;;;3.70;;
19107;SDS011;9686;48.832;9.126;2022-07-29T03:22:38;3.90;;;3.60;;
19107;SDS011;9686;48.832;9.126;2022-07-29T03:25:08;4.70;;;3.13;;
19107;SDS011;9686;48.832;9.126;2022-07-29T03:27:35;3.87;;;3.43;;
19107;SDS011;9686;48.832;9.126;2022-07-29T03:30:00;3.37;;;3.13;;
19107;SDS011;9686;48.832;9.126;2022-07-29T03:32:26;3.63;;;3.33;;
19107;SDS011;9686;48.832;9.126;2022-07-29T03:34:51;4.83;;;3.37;;
19107;SDS011;9686;48.832;9.126;2022-07-29T03:37:16;5.17;;;3.57;;
19107;SDS011;9686;48.832;9.126;2022-07-29T03:39:42;3.60;;;2.97;;
19107;SDS011;9686;48.832;9.126;2022-07-29T03:42:10;3.80;;;3.50;;
19107;SDS011;9686;48.832;9.126;2022-07-29T03:44:39;3.73;;;3.43;;
19107;SDS011;9686;48.832;9.126;2022-07-29T03:47:07;4.90;;;3.90;;
19107;SDS011;9686;48.832;9.126;2022-07-29T03:49:35;4.47;;;3.33;;
19107;SDS011;9686;48.832;9.126;2022-07-29T03:52:03;4.47;;;4.00;;
19107;SDS011;9686;48.832;9.126;2022-07-29T03:54:29;3.70;;;3.40;;
19107;SDS011;9686;48.832;9.126;2022-07-29T03:56:54;6.23;;;3.50;;
19107;SDS011;9686;48.832;9.126;2022-07-29T03:59:24;5.00;;;3.83;;
19107;SDS011;9686;48.832;9.126;2022-07-29T04:01:51;4.10;;;3.80;;
19107;SDS011;9686;48.832;9.126;2022-07-29T04:04:17;3.90;;;3.60;;
19107;SDS011;9686;48.832;9.126;2022-07-29T04:06:45;4.13;;;3.73;;
19107;SDS011;9686;48.832;9.126;2022-07-29T04:09:11;4.33;;;3.93;;
19107;SDS011;9686;48.832;9.126;2022-07-29T04:11:38;4.43;;;3.97;;
19107;SDS011;9686;48.832;9.126;2022-07-29T04:14:04;4.23;;;3.83;;
19107;SDS011;9686;48.832;9.126;2022-07-29T04:16:30;4.20;;;3.33;;
19107;SDS011;9686;48.832;9.126;2022-07-29T04:18:56;3.87;;;3.43;;
19107;SDS011;9686;48.832;9.126;2022-07-29T04:21:21;6.33;;;4.43;;
19107;SDS011;9686;48.832;9.126;2022-07-29T04:23:46;4.07;;;3.67;;
19107;SDS011;9686;48.832;9.126;2022-07-29T04:26:15;3.70;;;3.40;;
19107;SDS011;9686;48.832;9.126;2022-07-29T04:28:43;5.30;;;3.87;;
19107;SDS011;9686;48.832;9.126;2022-07-29T04:31:09;4.77;;;4.03;;
19107;SDS011;9686;48.832;9.126;2022-07-29T04:33:35;3.90;;;3.60;;
19107;SDS011;9686;48.832;9.126;2022-07-29T04:36:00;5.03;;;3.47;;
19107;SDS011;9686;48.832;9.126;2022-07-29T04:38:26;5.07;;;3.93;;
19107;SDS011;9686;48.832;9.126;2022-07-29T04:40:51;5.20;;;3.90;;
19107;SDS011;9686;48.832;9.126;2022-07-29T04:43:16;3.93;;;3.37;;
19107;SDS011;9686;48.832;9.126;2022-07-29T04:45:42;4.87;;;3.73;;
19107;SDS011;9686;48.832;9.126;2022-07-29T04:48:07;4.27;;;3.57;;
19107;SDS011;9686;48.832;9.126;2022-07-29T04:50:33;5.27;;;3.37;;
19107;SDS011;9686;48.832;9.126;2022-07-29T04:52:58;4.77;;;3.43;;
19107;SDS011;9686;48.832;9.126;2022-07-29T04:55:24;3.60;;;3.30;;
19107;SDS011;9686;48.832;9.126;2022-07-29T04:57:50;3.50;;;3.20;;
19107;SDS011;9686;48.832;9.126;2022-07-29T05:00:15;3.90;;;3.20;;
19107;SDS011;9686;48.832;9.126;2022-07-29T05:02:41;4.00;;;3.20;;
19107;SDS011;9686;48.832;9.126;2022-07-29T05:05:06;5.37;;;2.93;;
19107;SDS011;9686;48.832;9.126;2022-07-29T05:07:32;3.27;;;2.97;;
19107;SDS011;9686;48.832;9.126;2022-07-29T05:10:00;3.20;;;2.90;;
19107;SDS011;9686;48.832;9.126;2022-07-29T05:12:26;4.47;;;3.57;;
19107;SDS011;9686;48.832;9.126;2022-07-29T05:14:52;5.37;;;3.07;;
19107;SDS011;9686;48.832;9.126;2022-07-29T05:17:18;3.63;;;3.00;;
19107;SDS011;9686;48.832;9.126;2022-07-29T05:19:43;4.57;;;2.60;;
19107;SDS011;9686;48.832;9.126;2022-07-29T05:22:09;5.10;;;4.23;;
19107;SDS011;9686;48.832;9.126;2022-07-29T05:24:34;3.20;;;2.90;;
19107;SDS011;9686;48.832;9.126;2022-07-29T05:26:59;2.47;;;2.27;;
19107;SDS011;9686;48.832;9.126;2022-07-29T05:29:25;2.67;;;2.07;;
19107;SDS011;9686;48.832;9.126;2022-07-29T05:31:51;3.30;;;2.33;;
19107;SDS011;9686;48.832;9.126;2022-07-29T05:34:17;2.70;;;2.47;;
19107;SDS011;9686;48.832;9.126;2022-07-29T05:36:43;4.27;;;2.37;;
19107;SDS011;9686;48.832;9.126;2022-07-29T05:39:10;2.80;;;2.40;;
19107;SDS011;9686;48.832;9.126;2022-07-29T05:41:35;2.50;;;2.30;;
19107;SDS011;9686;48.832;9.126;2022-07-29T05:44:00;3.33;;;2.67;;
19107;SDS011;9686;48.832;9.126;2022-07-29T05:46:26;3.33;;;2.40;;
19107;SDS011;9686;48.832;9.126;2022-07-29T05:48:51;2.50;;;2.30;;
19107;SDS011;9686;48.832;9.126;2022-07-29T05:51:16;2.87;;;2.30;;
19107;SDS011;9686;48.832;9.126;2022-07-29T05:53:42;2.70;;;2.50;;
19107;SDS011;9686;48.832;9.126;2022-07-29T05:56:07;3.50;;;2.50;;
19107;SDS011;9686;48.832;9.126;2022-07-29T05:58:33;5.47;;;2.37;;
19107;SDS011;9686;48.832;9.126;2022-07-29T06:00:58;2.47;;;2.27;;
19107;SDS011;9686;48.832;9.126;2022-07-29T06:03:26;2.67;;;2.40;;
19107;SDS011;9686;48.832;9.126;2022-07-29T06:05:51;2.73;;;2.20;;
19107;SDS011;9686;48.832;9.126;2022-07-29T06:08:17;5.17;;;3.47;;
19107;SDS011;9686;48.832;9.126;2022-07-29T06:10:43;3.93;;;2.30;;
19107;SDS011;9686;48.832;9.126;2022-07-29T06:13:08;3.23;;;2.30;;
19107;SDS011;9686;48.832;9.126;2022-07-29T06:15:34;7.00;;;2.97;;
19107;SDS011;9686;48.832;9.126;2022-07-29T06:17:59;2.57;;;2.30;;
19107;SDS011;9686;48.832;9.126;2022-07-29T06:20:25;2.30;;;2.10;;
19107;SDS011;9686;48.832;9.126;2022-07-29T06:22:51;2.67;;;2.40;;
19107;SDS011;9686;48.832;9.126;2022-07-29T06:25:17;3.00;;;2.67;;
19107;SDS011;9686;48.832;9.126;2022-07-29T06:27:42;4.00;;;2.50;;
19107;SDS011;9686;48.832;9.126;2022-07-29T06:30:07;2.43;;;2.23;;
19107;SDS011;9686;48.832;9.126;2022-07-29T06:32:33;3.80;;;2.87;;
19107;SDS011;9686;48.832;9.126;2022-07-29T06:35:00;3.37;;;2.50;;
19107;SDS011;9686;48.832;9.126;2022-07-29T06:37:25;2.70;;;2.50;;
19107;SDS011;9686;48.832;9.126;2022-07-29T06:39:50;2.83;;;2.50;;
19107;SDS011;9686;48.832;9.126;2022-07-29T06:42:36;5.27;;;2.70;;
19107;SDS011;9686;48.832;9.126;2022-07-29T06:45:01;5.00;;;2.87;;
19107;SDS011;9686;48.832;9.126;2022-07-29T06:47:26;3.93;;;3.00;;
19107;SDS011;9686;48.832;9.126;2022-07-29T06:49:52;2.97;;;2.60;;
19107;SDS011;9686;48.832;9.126;2022-07-29T06:52:17;3.80;;;2.20;;
19107;SDS011;9686;48.832;9.126;2022-07-29T06:54:43;4.10;;;2.90;;
19107;SDS011;9686;48.832;9.126;2022-07-29T06:57:12;4.40;;;2.67;;
19107;SDS011;9686;48.832;9.126;2022-07-29T06:59:38;2.60;;;2.40;;
19107;SDS011;9686;48.832;9.126;2022-07-29T07:02:03;4.50;;;3.00;;
19107;SDS011;9686;48.832;9.126;2022-07-29T07:04:29;8.20;;;3.00;;
19107;SDS011;9686;48.832;9.126;2022-07-29T07:06:54;4.97;;;3.10;;
19107;SDS011;9686;48.832;9.126;2022-07-29T07:09:20;6.60;;;2.73;;
19107;SDS011;9686;48.832;9.126;2022-07-29T07:11:46;2.90;;;2.40;;
19107;SDS011;9686;48.832;9.126;2022-07-29T07:14:11;3.67;;;2.80;;
19107;SDS011;9686;48.832;9.126;2022-07-29T07:16:36;4.07;;;2.90;;
19107;SDS011;9686;48.832;9.126;2022-07-29T07:19:02;5.53;;;3.20;;
19107;SDS011;9686;48.832;9.126;2022-07-29T07:21:27;8.03;;;3.20;;
19107;SDS011;9686;48.832;9.126;2022-07-29T07:23:53;3.87;;;3.40;;
19107;SDS011;9686;48.832;9.126;2022-07-29T07:26:18;5.67;;;3.20;;
19107;SDS011;9686;48.832;9.126;2022-07-29T07:28:43;3.30;;;3.00;;
19107;SDS011;9686;48.832;9.126;2022-07-29T07:31:09;3.57;;;2.93;;
19107;SDS011;9686;48.832;9.126;2022-07-29T07:33:35;3.90;;;3.10;;
19107;SDS011;9686;48.832;9.126;2022-07-29T07:36:00;4.80;;;3.30;;
19107;SDS011;9686;48.832;9.126;2022-07-29T07:38:25;5.37;;;3.20;;
19107;SDS011;9686;48.832;9.126;2022-07-29T07:40:51;5.13;;;3.43;;
19107;SDS011;9686;48.832;9.126;2022-07-29T07:43:16;3.53;;;3.23;;
19107;SDS011;9686;48.832;9.126;2022-07-29T07:45:42;4.63;;;3.70;;
19107;SDS011;9686;48.832;9.126;2022-07-29T07:48:07;3.87;;;3.07;;
19107;SDS011;9686;48.832;9.126;2022-07-29T07:50:35;4.53;;;4.13;;
19107;SDS011;9686;48.832;9.126;2022-07-29T07:53:00;5.50;;;3.30;;
19107;SDS011;9686;48.832;9.126;2022-07-29T07:55:27;4.83;;;3.30;;
19107;SDS011;9686;48.832;9.126;2022-07-29T07:57:52;3.70;;;3.33;;
19107;SDS011;9686;48.832;9.126;2022-07-29T08:00:21;4.03;;;3.63;;
19107;SDS011;9686;48.832;9.126;2022-07-29T08:02:46;3.33;;;3.07;;
19107;SDS011;9686;48.832;9.126;2022-07-29T08:05:12;5.97;;;3.43;;
19107;SDS011;9686;48.832;9.126;2022-07-29T08:07:42;5.00;;;3.20;;
19107;SDS011;9686;48.832;9.126;2022-07-29T08:10:09;10.50;;;3.20;;
19107;SDS011;9686;48.832;9.126;2022-07-29T08:12:34;4.23;;;3.50;;
19107;SDS011;9686;48.832;9.126;2022-07-29T08:14:59;4.07;;;3.50;;
19107;SDS011;9686;48.832;9.126;2022-07-29T08:17:25;3.90;;;3.33;;
19107;SDS011;9686;48.832;9.126;2022-07-29T08:19:51;2.80;;;2.60;;
19107;SDS011;9686;48.832;9.126;2022-07-29T08:22:16;3.33;;;3.07;;
19107;SDS011;9686;48.832;9.126;2022-07-29T08:24:42;5.40;;;3.60;;
19107;SDS011;9686;48.832;9.126;2022-07-29T08:27:07;5.07;;;3.57;;
19107;SDS011;9686;48.832;9.126;2022-07-29T08:29:33;4.23;;;3.83;;
19107;SDS011;9686;48.832;9.126;2022-07-29T08:31:59;3.40;;;3.10;;
19107;SDS011;9686;48.832;9.126;2022-07-29T08:34:24;3.67;;;3.33;;
19107;SDS011;9686;48.832;9.126;2022-07-29T08:36:50;3.57;;;3.03;;
19107;SDS011;9686;48.832;9.126;2022-07-29T08:39:15;9.83;;;3.53;;
19107;SDS011;9686;48.832;9.126;2022-07-29T08:41:41;3.33;;;2.87;;
19107;SDS011;9686;48.832;9.126;2022-07-29T08:44:06;3.33;;;3.00;;
19107;SDS011;9686;48.832;9.126;2022-07-29T08:46:31;3.73;;;3.30;;
19107;SDS011;9686;48.832;9.126;2022-07-29T08:48:58;5.00;;;3.70;;
19107;SDS011;9686;48.832;9.126;2022-07-29T08:51:23;4.07;;;3.40;;
19107;SDS011;9686;48.832;9.126;2022-07-29T08:53:50;7.53;;;3.53;;
19107;SDS011;9686;48.832;9.126;2022-07-29T08:56:16;4.33;;;3.30;;
19107;SDS011;9686;48.832;9.126;2022-07-29T08:58:43;3.97;;;3.57;;
19107;SDS011;9686;48.832;9.126;2022-07-29T09:01:10;4.23;;;3.37;;
19107;SDS011;9686;48.832;9.126;2022-07-29T09:03:37;3.90;;;3.37;;
19107;SDS011;9686;48.832;9.126;2022-07-29T09:06:04;4.67;;;3.53;;
19107;SDS011;9686;48.832;9.126;2022-07-29T09:08:30;4.30;;;3.90;;
19107;SDS011;9686;48.832;9.126;2022-07-29T09:10:57;6.83;;;3.80;;
19107;SDS011;9686;48.832;9.126;2022-07-29T09:13:25;5.70;;;3.43;;
19107;SDS011;9686;48.832;9.126;2022-07-29T09:15:50;3.87;;;3.30;;
19107;SDS011;9686;48.832;9.126;2022-07-29T09:20:59;3.80;;;3.50;;
19107;SDS011;9686;48.832;9.126;2022-07-29T09:26:44;5.93;;;4.10;;
19107;SDS011;9686;48.832;9.126;2022-07-29T09:31:47;3.80;;;3.50;;
19107;SDS011;9686;48.832;9.126;2022-07-29T09:34:14;4.40;;;4.00;;
19107;SDS011;9686;48.832;9.126;2022-07-29T09:36:45;4.85;;;3.90;;
19107;SDS011;9686;48.832;9.126;2022-07-29T09:39:12;5.97;;;4.03;;
19107;SDS011;9686;48.832;9.126;2022-07-29T09:41:57;5.20;;;4.50;;
19107;SDS011;9686;48.832;9.126;2022-07-29T09:44:25;5.80;;;3.83;;
19107;SDS011;9686;48.832;9.126;2022-07-29T09:49:19;4.07;;;3.67;;
19107;SDS011;9686;48.832;9.126;2022-07-29T09:51:45;4.10;;;3.70;;
19107;SDS011;9686;48.832;9.126;2022-07-29T09:56:49;5.80;;;4.17;;
19107;SDS011;9686;48.832;9.126;2022-07-29T09:59:15;4.93;;;3.70;;
19107;SDS011;9686;48.832;9.126;2022-07-29T10:01:40;6.40;;;4.00;;
19107;SDS011;9686;48.832;9.126;2022-07-29T10:04:06;3.80;;;3.50;;
19107;SDS011;9686;48.832;9.126;2022-07-29T10:06:31;4.75;;;3.95;;
19107;SDS011;9686;48.832;9.126;2022-07-29T10:09:09;5.28;;;3.55;;
19107;SDS011;9686;48.832;9.126;2022-07-29T10:11:35;6.22;;;3.67;;
19107;SDS011;9686;48.832;9.126;2022-07-29T10:14:02;4.03;;;3.63;;
19107;SDS011;9686;48.832;9.126;2022-07-29T10:16:28;4.47;;;3.85;;
19107;SDS011;9686;48.832;9.126;2022-07-29T10:18:57;6.67;;;3.90;;
19107;SDS011;9686;48.832;9.126;2022-07-29T10:21:25;4.33;;;3.93;;
19107;SDS011;9686;48.832;9.126;2022-07-29T10:23:51;8.97;;;3.90;;
19107;SDS011;9686;48.832;9.126;2022-07-29T10:26:17;3.90;;;3.58;;
19107;SDS011;9686;48.832;9.126;2022-07-29T10:28:44;5.97;;;4.03;;
19107;SDS011;9686;48.832;9.126;2022-07-29T10:31:24;6.37;;;3.80;;
19107;SDS011;9686;48.832;9.126;2022-07-29T10:34:03;3.93;;;3.63;;
19107;SDS011;9686;48.832;9.126;2022-07-29T10:36:56;5.57;;;3.90;;
19107;SDS011;9686;48.832;9.126;2022-07-29T10:42:22;6.17;;;4.00;;
19107;SDS011;9686;48.832;9.126;2022-07-29T10:44:51;12.20;;;4.27;;
19107;SDS011;9686;48.832;9.126;2022-07-29T10:47:23;3.80;;;3.50;;
19107;SDS011;9686;48.832;9.126;2022-07-29T10:52:22;4.20;;;3.63;;
19107;SDS011;9686;48.832;9.126;2022-07-29T10:54:49;4.63;;;3.70;;
19107;SDS011;9686;48.832;9.126;2022-07-29T10:57:26;5.20;;;4.03;;
19107;SDS011;9686;48.832;9.126;2022-07-29T11:07:34;7.10;;;4.07;;
19107;SDS011;9686;48.832;9.126;2022-07-29T11:15:09;7.73;;;5.03;;
19107;SDS011;9686;48.832;9.126;2022-07-29T11:20:35;8.20;;;4.57;;
19107;SDS011;9686;48.832;9.126;2022-07-29T11:25:46;5.57;;;4.10;;
19107;SDS011;9686;48.832;9.126;2022-07-29T11:39:37;5.60;;;3.30;;
19107;SDS011;9686;48.832;9.126;2022-07-29T11:44:53;4.03;;;3.73;;
19107;SDS011;9686;48.832;9.126;2022-07-29T11:47:34;6.10;;;4.17;;
19107;SDS011;9686;48.832;9.126;2022-07-29T11:50:05;6.43;;;3.77;;
19107;SDS011;9686;48.832;9.126;2022-07-29T11:52:37;4.73;;;3.63;;
19107;SDS011;9686;48.832;9.126;2022-07-29T11:55:08;5.17;;;3.47;;
19107;SDS011;9686;48.832;9.126;2022-07-29T11:57:35;5.57;;;3.43;;
19107;SDS011;9686;48.832;9.126;2022-07-29T12:00:01;5.33;;;3.80;;
19107;SDS011;9686;48.832;9.126;2022-07-29T12:02:41;7.30;;;4.20;;
19107;SDS011;9686;48.832;9.126;2022-07-29T12:05:08;5.57;;;4.13;;
19107;SDS011;9686;48.832;9.126;2022-07-29T12:07:35;7.83;;;4.50;;
19107;SDS011;9686;48.832;9.126;2022-07-29T12:10:05;6.07;;;4.23;;
19107;SDS011;9686;48.832;9.126;2022-07-29T12:12:31;5.43;;;4.40;;
19107;SDS011;9686;48.832;9.126;2022-07-29T12:14:57;6.77;;;3.90;;
19107;SDS011;9686;48.832;9.126;2022-07-29T12:19:58;4.90;;;4.10;;
19107;SDS011;9686;48.832;9.126;2022-07-29T12:22:26;7.30;;;4.57;;
19107;SDS011;9686;48.832;9.126;2022-07-29T12:25:01;4.80;;;4.10;;
19107;SDS011;9686;48.832;9.126;2022-07-29T12:27:28;5.53;;;4.13;;
19107;SDS011;9686;48.832;9.126;2022-07-29T12:29:59;6.40;;;4.20;;
19107;SDS011;9686;48.832;9.126;2022-07-29T12:32:32;5.53;;;4.00;;
19107;SDS011;9686;48.832;9.126;2022-07-29T12:34:58;4.93;;;3.80;;
19107;SDS011;9686;48.832;9.126;2022-07-29T12:37:24;8.47;;;4.33;;
19107;SDS011;9686;48.832;9.126;2022-07-29T12:39:50;6.17;;;4.23;;
19107;SDS011;9686;48.832;9.126;2022-07-29T12:42:16;4.70;;;4.10;;
19107;SDS011;9686;48.832;9.126;2022-07-29T12:44:46;6.90;;;4.47;;
19107;SDS011;9686;48.832;9.126;2022-07-29T12:47:16;4.83;;;3.67;;
19107;SDS011;9686;48.832;9.126;2022-07-29T12:49:43;6.77;;;4.13;;
19107;SDS011;9686;48.832;9.126;2022-07-29T12:52:28;5.63;;;4.13;;
19107;SDS011;9686;48.832;9.126;2022-07-29T12:54:55;5.20;;;4.20;;
19107;SDS011;9686;48.832;9.126;2022-07-29T12:57:21;4.40;;;3.80;;
19107;SDS011;9686;48.832;9.126;2022-07-29T13:02:25;4.40;;;3.57;;
19107;SDS011;9686;48.832;9.126;2022-07-29T13:05:00;5.23;;;3.77;;
19107;SDS011;9686;48.832;9.126;2022-07-29T13:07:30;4.73;;;3.60;;
19107;SDS011;9686;48.832;9.126;2022-07-29T13:10:16;4.20;;;3.83;;
19107;SDS011;9686;48.832;9.126;2022-07-29T13:15:33;6.13;;;3.93;;
19107;SDS011;9686;48.832;9.126;2022-07-29T13:17:59;3.80;;;3.20;;
19107;SDS011;9686;48.832;9.126;2022-07-29T13:20:25;4.20;;;3.30;;
19107;SDS011;9686;48.832;9.126;2022-07-29T13:22:54;4.07;;;2.90;;
19107;SDS011;9686;48.832;9.126;2022-07-29T13:25:24;4.60;;;3.03;;
19107;SDS011;9686;48.832;9.126;2022-07-29T13:27:53;3.60;;;3.30;;
19107;SDS011;9686;48.832;9.126;2022-07-29T13:30:19;4.07;;;3.00;;
19107;SDS011;9686;48.832;9.126;2022-07-29T13:32:45;3.53;;;2.90;;
19107;SDS011;9686;48.832;9.126;2022-07-29T13:35:11;2.90;;;2.67;;
19107;SDS011;9686;48.832;9.126;2022-07-29T13:37:37;5.17;;;2.67;;
19107;SDS011;9686;48.832;9.126;2022-07-29T13:40:08;6.03;;;2.70;;
19107;SDS011;9686;48.832;9.126;2022-07-29T13:42:34;3.20;;;2.87;;
19107;SDS011;9686;48.832;9.126;2022-07-29T13:44:59;2.80;;;2.60;;
19107;SDS011;9686;48.832;9.126;2022-07-29T13:47:25;5.27;;;3.20;;
19107;SDS011;9686;48.832;9.126;2022-07-29T13:49:51;2.60;;;2.40;;
19107;SDS011;9686;48.832;9.126;2022-07-29T13:52:17;3.40;;;2.83;;
19107;SDS011;9686;48.832;9.126;2022-07-29T13:54:43;3.50;;;3.20;;
19107;SDS011;9686;48.832;9.126;2022-07-29T13:57:09;4.83;;;3.03;;
19107;SDS011;9686;48.832;9.126;2022-07-29T13:59:35;4.80;;;2.93;;
19107;SDS011;9686;48.832;9.126;2022-07-29T14:02:01;4.45;;;3.08;;
19107;SDS011;9686;48.832;9.126;2022-07-29T14:04:26;5.70;;;3.00;;
19107;SDS011;9686;48.832;9.126;2022-07-29T14:06:51;3.40;;;2.80;;
19107;SDS011;9686;48.832;9.126;2022-07-29T14:09:17;3.50;;;3.00;;
19107;SDS011;9686;48.832;9.126;2022-07-29T14:11:42;3.77;;;3.37;;
19107;SDS011;9686;48.832;9.126;2022-07-29T14:14:08;4.57;;;2.87;;
19107;SDS011;9686;48.832;9.126;2022-07-29T14:16:35;3.53;;;3.20;;
19107;SDS011;9686;48.832;9.126;2022-07-29T14:19:00;4.15;;;3.33;;
19107;SDS011;9686;48.832;9.126;2022-07-29T14:21:25;2.93;;;2.63;;
19107;SDS011;9686;48.832;9.126;2022-07-29T14:23:51;5.93;;;3.07;;
19107;SDS011;9686;48.832;9.126;2022-07-29T14:26:17;3.93;;;3.10;;
19107;SDS011;9686;48.832;9.126;2022-07-29T14:28:43;3.85;;;3.20;;
19107;SDS011;9686;48.832;9.126;2022-07-29T14:31:09;3.00;;;2.80;;
19107;SDS011;9686;48.832;9.126;2022-07-29T14:33:34;5.13;;;2.87;;
19107;SDS011;9686;48.832;9.126;2022-07-29T14:36:00;3.38;;;3.00;;
19107;SDS011;9686;48.832;9.126;2022-07-29T14:38:25;3.45;;;3.15;;
19107;SDS011;9686;48.832;9.126;2022-07-29T14:40:51;3.63;;;2.97;;
19107;SDS011;9686;48.832;9.126;2022-07-29T14:43:16;4.22;;;2.42;;
19107;SDS011;9686;48.832;9.126;2022-07-29T14:45:42;3.55;;;2.58;;
19107;SDS011;9686;48.832;9.126;2022-07-29T14:48:08;2.67;;;2.25;;
19107;SDS011;9686;48.832;9.126;2022-07-29T14:50:33;3.28;;;2.42;;
19107;SDS011;9686;48.832;9.126;2022-07-29T14:52:59;5.68;;;2.42;;
19107;SDS011;9686;48.832;9.126;2022-07-29T14:55:25;3.85;;;2.78;;
19107;SDS011;9686;48.832;9.126;2022-07-29T14:57:50;4.05;;;2.80;;
19107;SDS011;9686;48.832;9.126;2022-07-29T15:00:16;8.35;;;2.75;;
19107;SDS011;9686;48.832;9.126;2022-07-29T15:02:42;4.53;;;2.55;;
19107;SDS011;9686;48.832;9.126;2022-07-29T15:05:08;2.95;;;2.65;;
19107;SDS011;9686;48.832;9.126;2022-07-29T15:07:33;4.40;;;2.55;;
19107;SDS011;9686;48.832;9.126;2022-07-29T15:09:58;5.55;;;3.03;;
19107;SDS011;9686;48.832;9.126;2022-07-29T15:12:24;8.15;;;2.97;;
19107;SDS011;9686;48.832;9.126;2022-07-29T15:14:49;2.95;;;2.75;;
19107;SDS011;9686;48.832;9.126;2022-07-29T15:17:14;3.67;;;2.78;;
19107;SDS011;9686;48.832;9.126;2022-07-29T15:19:40;5.35;;;3.00;;
19107;SDS011;9686;48.832;9.126;2022-07-29T15:22:05;2.97;;;2.70;;
19107;SDS011;9686;48.832;9.126;2022-07-29T15:24:30;4.22;;;2.67;;
19107;SDS011;9686;48.832;9.126;2022-07-29T15:26:56;5.25;;;2.38;;
19107;SDS011;9686;48.832;9.126;2022-07-29T15:29:21;4.63;;;1.98;;
19107;SDS011;9686;48.832;9.126;2022-07-29T15:31:47;2.50;;;2.15;;
19107;SDS011;9686;48.832;9.126;2022-07-29T15:34:12;4.53;;;2.33;;
19107;SDS011;9686;48.832;9.126;2022-07-29T15:36:37;3.10;;;2.15;;
19107;SDS011;9686;48.832;9.126;2022-07-29T15:39:03;3.22;;;2.05;;
19107;SDS011;9686;48.832;9.126;2022-07-29T15:41:28;2.40;;;2.13;;
19107;SDS011;9686;48.832;9.126;2022-07-29T15:43:54;4.32;;;2.45;;
19107;SDS011;9686;48.832;9.126;2022-07-29T15:46:19;2.80;;;2.03;;
19107;SDS011;9686;48.832;9.126;2022-07-29T15:49:04;3.00;;;2.35;;
19107;SDS011;9686;48.832;9.126;2022-07-29T15:51:30;3.10;;;1.88;;
19107;SDS011;9686;48.832;9.126;2022-07-29T15:53:56;2.88;;;1.70;;
19107;SDS011;9686;48.832;9.126;2022-07-29T15:56:22;1.97;;;1.53;;
19107;SDS011;9686;48.832;9.126;2022-07-29T15:58:48;2.47;;;1.65;;
19107;SDS011;9686;48.832;9.126;2022-07-29T16:01:15;2.25;;;1.85;;
19107;SDS011;9686;48.832;9.126;2022-07-29T16:03:40;3.15;;;1.80;;
19107;SDS011;9686;48.832;9.126;2022-07-29T16:06:05;2.47;;;1.70;;
19107;SDS011;9686;48.832;9.126;2022-07-29T16:08:31;3.60;;;1.85;;
19107;SDS011;9686;48.832;9.126;2022-07-29T16:10:56;2.85;;;1.48;;
19107;SDS011;9686;48.832;9.126;2022-07-29T16:13:22;2.30;;;1.70;;
19107;SDS011;9686;48.832;9.126;2022-07-29T16:15:47;2.17;;;1.90;;